Data for 11/19/2016

Time Sea-Level Adjusted Pressure Absolute Pressure Temperature Relative Humidity Dew Point   
(mb) (inHg) (mb) (inHg) (C) (F) (%) (C) (F)
00:05 1021 30.15 850 25.1 0.3 32.5 50 -9 15.8
00:10 1021 30.15 850 25.1 0.4 32.7 50 -8.9 15.9
00:15 1021 30.15 850 25.1 0.4 32.8 49 -9.1 15.6
00:20 1021 30.15 850 25.1 0.5 32.9 50 -8.8 16.1
00:25 1021 30.15 850 25.1 0.5 32.9 47 -9.5 14.8
00:30 1021 30.15 850 25.1 0.6 33.1 45 -10 14
00:35 1020 30.12 850 25.1 0.8 33.4 45 -9.7 14.5
00:40 1020 30.12 850 25.1 1 33.8 43 -10.2 13.6
00:45 1020 30.12 849 25.07 1.1 34 44 -9.7 14.5
00:50 1020 30.12 849 25.07 0.9 33.7 46 -9.6 14.8
00:55 1020 30.12 849 25.07 0.8 33.5 46 -9.4 15.1
01:00 1020 30.12 849 25.07 0.7 33.3 48 -9 15.8
01:05 1020 30.12 849 25.07 0.6 33.1 49 -8.9 16
01:10 1020 30.12 849 25.07 0.6 33.1 49 -8.9 16
01:15 1020 30.12 849 25.07 0.4 32.7 51 -8.7 16.4
01:20 1020 30.12 849 25.07 0.1 32.3 52 -8.6 16.5
01:25 1020 30.12 849 25.07 0 32.1 52 -8.6 16.6
01:30 1020 30.12 849 25.07 -0.1 31.9 53 -8.5 16.7
01:35 1020 30.12 849 25.07 0 32 53 -8.5 16.6
01:40 1020 30.12 849 25.07 0.1 32.1 53 -8.5 16.7
01:45 1020 30.12 849 25.07 -0.1 31.9 54 -8.3 17.1
01:50 1020 30.12 849 25.07 0 32 53 -8.4 16.9
01:55 1020 30.12 849 25.07 0 32.1 54 -8.2 17.3
02:00 1020 30.12 849 25.07 0.3 32.5 55 -7.7 18.1
02:05 1019 30.09 849 25.07 0.2 32.3 58 -7.3 18.9
02:10 1019 30.09 848 25.04 0.2 32.4 56 -7.5 18.5
02:15 1019 30.09 849 25.07 0.3 32.5 57 -7.4 18.8
02:20 1019 30.09 849 25.07 0.3 32.5 57 -7.2 19.1
02:25 1019 30.09 849 25.07 0.3 32.6 53 -8.1 17.4
02:30 1019 30.09 849 25.07 0.6 33.1 54 -7.7 18.1
02:35 1019 30.09 848 25.04 0.6 33.1 51 -8.5 16.7
02:40 1019 30.09 848 25.04 0.8 33.4 49 -8.8 16.1
02:45 1019 30.09 848 25.04 0.9 33.6 48 -9 15.9
02:50 1019 30.09 848 25.04 1 33.7 48 -8.9 16
02:55 1019 30.09 848 25.04 1 33.7 47 -9.1 15.6
03:00 1019 30.09 848 25.04 1 33.8 46 -9.4 15.1
03:05 1019 30.09 848 25.04 1.1 34 46 -9.4 15.1
03:10 1019 30.09 848 25.04 1.2 34.1 46 -9.2 15.4
03:15 1019 30.09 848 25.04 1.1 34 46 -9.1 15.5
03:20 1019 30.09 848 25.04 1.1 33.9 47 -9.1 15.5
03:25 1019 30.09 848 25.04 1.1 34 46 -9.4 15.2
03:30 1019 30.09 848 25.04 1.2 34.1 47 -9 15.8
03:35 1019 30.09 848 25.04 1.2 34.1 48 -8.6 16.6
03:40 1019 30.09 848 25.04 1 33.9 46 -9.2 15.4
03:45 1019 30.09 848 25.04 1.1 33.9 46 -9.2 15.4
03:50 1019 30.09 848 25.04 1.1 33.9 45 -9.6 14.7
03:55 1019 30.09 848 25.04 1.1 34 46 -9.4 15.1
04:00 1018 30.06 848 25.04 1.1 33.9 45 -9.6 14.8
04:05 1019 30.09 848 25.04 1.1 34 46 -9.4 15.1
04:10 1019 30.09 848 25.04 1.1 34 52 -7.6 18.3
04:15 1019 30.09 848 25.04 0.9 33.6 51 -8.1 17.5
04:20 1019 30.09 848 25.04 0.9 33.6 50 -8.4 16.8
04:25 1019 30.09 848 25.04 0.9 33.6 51 -8.3 17.1
04:30 1019 30.09 848 25.04 0.7 33.3 53 -7.9 17.8
04:35 1019 30.09 848 25.04 0.6 33.1 53 -7.8 17.9
04:40 1018 30.06 848 25.04 0.4 32.8 54 -7.9 17.8
04:45 1019 30.09 848 25.04 0.4 32.7 54 -7.9 17.8
04:50 1019 30.09 848 25.04 0.3 32.6 55 -7.8 18
04:55 1019 30.09 848 25.04 0.2 32.3 55 -7.9 17.8
05:00 1019 30.09 848 25.04 0.1 32.2 56 -7.7 18.2
05:05 1019 30.09 848 25.04 0 32.1 58 -7.3 18.9
05:10 1019 30.09 848 25.04 -0.1 31.8 58 -7.3 18.8
05:15 1019 30.09 848 25.04 -0.2 31.6 63 -6.4 20.6
05:20 1019 30.09 848 25.04 -0.2 31.6 64 -6.2 20.8
05:25 1018 30.06 848 25.04 -0.3 31.4 65 -6 21.2
05:30 1018 30.06 848 25.04 -0.3 31.4 66 -5.9 21.4
05:35 1018 30.06 848 25.04 -0.4 31.3 67 -5.8 21.6
05:40 1018 30.06 848 25.04 -0.5 31 67 -6 21.2
05:45 1018 30.06 847 25.01 -0.4 31.3 67 -5.9 21.5
05:50 1018 30.06 847 25.01 -0.3 31.5 65 -6 21.2
05:55 1018 30.06 847 25.01 -0.1 31.8 63 -6.2 20.8
06:00 1018 30.06 847 25.01 0.1 32.1 61 -6.5 20.3
06:05 1018 30.06 847 25.01 0.1 32.2 64 -5.9 21.3
06:10 1018 30.06 847 25.01 0 32 58 -7.3 18.8
06:15 1018 30.06 847 25.01 0.3 32.5 60 -6.5 20.3
06:20 1018 30.06 847 25.01 0.2 32.4 55 -7.7 18.1
06:25 1018 30.06 847 25.01 0.5 32.9 58 -6.8 19.8
06:30 1018 30.06 847 25.01 0.3 32.6 58 -7.1 19.3
06:35 1018 30.06 847 25.01 0.3 32.6 60 -6.5 20.2
06:40 1018 30.06 847 25.01 0.1 32.1 61 -6.7 20
06:45 1018 30.06 847 25.01 0.1 32.2 61 -6.6 20.1
06:50 1018 30.06 847 25.01 0 32.1 61 -6.6 20.2
06:55 1018 30.06 847 25.01 0 32.1 61 -6.5 20.3
07:00 1018 30.06 847 25.01 0.1 32.1 62 -6.5 20.4
07:05 1018 30.06 847 25.01 0.1 32.3 60 -6.7 19.9
07:10 1018 30.06 847 25.01 0.4 32.7 58 -7 19.4
07:15 1018 30.06 847 25.01 0.5 32.9 57 -7 19.4
07:20 1018 30.06 847 25.01 0.7 33.2 56 -7.1 19.2
07:25 1018 30.06 847 25.01 0.7 33.3 55 -7.4 18.8
07:30 1018 30.06 847 25.01 0.8 33.5 55 -7.3 18.9
07:35 1018 30.06 847 25.01 0.9 33.7 52 -7.7 18.1
07:40 1018 30.06 847 25.01 1 33.9 54 -7.2 19
07:45 1018 30.06 847 25.01 1.1 33.9 51 -8 17.5
07:50 1018 30.06 847 25.01 1.1 33.9 53 -7.4 18.6
07:55 1018 30.06 847 25.01 0.8 33.4 56 -7.1 19.3
08:00 1018 30.06 847 25.01 0.6 33 58 -6.7 20
08:05 1018 30.06 847 25.01 0.4 32.8 59 -6.6 20.1
08:10 1018 30.06 847 25.01 0.3 32.5 60 -6.5 20.2
08:15 1018 30.06 847 25.01 0.1 32.2 60 -6.8 19.8
08:20 1018 30.06 847 25.01 0.2 32.3 59 -7 19.4
08:25 1018 30.06 847 25.01 0.2 32.3 59 -7 19.5
08:30 1018 30.06 847 25.01 0.2 32.4 60 -6.6 20.2
08:35 1018 30.06 847 25.01 0.3 32.6 61 -6.4 20.5
08:40 1018 30.06 847 25.01 0.3 32.6 61 -6.3 20.7
08:45 1018 30.06 847 25.01 0.4 32.8 58 -6.8 19.7
08:50 1018 30.06 847 25.01 1.2 34.1 56 -6.7 20
08:55 1018 30.06 847 25.01 1.1 34 56 -6.7 19.9
09:00 1017 30.03 847 25.01 1.4 34.5 52 -7.3 18.8
09:05 1017 30.03 846 24.98 1.8 35.3 52 -7.1 19.2
09:10 1017 30.03 846 24.98 1.9 35.5 51 -7 19.3
09:15 1017 30.03 846 24.98 2 35.5 52 -6.9 19.6
09:20 1017 30.03 846 24.98 2.2 36 49 -7.5 18.5
09:25 1017 30.03 846 24.98 2.6 36.7 48 -7.4 18.7
09:30 1017 30.03 846 24.98 2.7 36.9 47 -7.5 18.5
09:35 1017 30.03 846 24.98 2.9 37.2 44 -8.1 17.5
09:40 1017 30.03 846 24.98 3.3 37.9 44 -7.9 17.8
09:45 1017 30.03 846 24.98 3.6 38.4 41 -8.4 17
09:50 1017 30.03 846 24.98 3.8 38.9 43 -7.6 18.3
09:55 1017 30.03 846 24.98 4.1 39.3 39 -8.7 16.4
10:00 1017 30.03 846 24.98 4.5 40.2 39 -8.1 17.4
10:05 1017 30.03 846 24.98 4.8 40.6 39 -8.2 17.3
10:10 1017 30.03 846 24.98 4.8 40.6 42 -6.9 19.5
10:15 1017 30.03 846 24.98 4.1 39.4 46 -6.4 20.6
10:20 1017 30.03 846 24.98 3.6 38.4 45 -7.4 18.7
10:25 1017 30.03 846 24.98 3 37.5 47 -7.3 18.9
10:30 1017 30.03 846 24.98 3 37.3 47 -7.4 18.7
10:35 1017 30.03 846 24.98 3.1 37.5 47 -7.1 19.3
10:40 1017 30.03 846 24.98 3.3 38 46 -7.1 19.2
10:45 1017 30.03 846 24.98 3.3 38 45 -7.4 18.6
10:50 1017 30.03 846 24.98 3.4 38.2 45 -7.5 18.5
10:55 1017 30.03 846 24.98 2.9 37.3 47 -7.4 18.8
11:00 1017 30.03 846 24.98 3.5 38.4 45 -7.4 18.7
11:05 1017 30.03 846 24.98 3.8 38.9 42 -7.8 17.9
11:10 1017 30.03 846 24.98 3.5 38.4 44 -7.7 18.2
11:15 1017 30.03 846 24.98 3.5 38.2 45 -7.3 18.8
11:20 1017 30.03 846 24.98 3.5 38.3 45 -7.4 18.6
11:25 1017 30.03 846 24.98 3.8 38.9 43 -7.6 18.3
11:30 1017 30.03 846 24.98 3.8 38.8 44 -7.2 19
11:35 1017 30.03 846 24.98 3.9 39 45 -7 19.4
11:40 1017 30.03 846 24.98 4 39.3 44 -7.1 19.2
11:45 1017 30.03 846 24.98 4.3 39.8 42 -7.5 18.5
11:50 1017 30.03 846 24.98 4.7 40.5 37 -8.7 16.3
11:55 1016 30 846 24.98 4.5 40.1 38 -8.7 16.3
12:00 1016 30 846 24.98 4.8 40.6 37 -8.7 16.3
12:05 1016 30 845 24.95 5.4 41.7 36 -8.5 16.7
12:10 1016 30 845 24.95 5.5 42 37 -8.1 17.4
12:15 1016 30 845 24.95 5.8 42.4 37 -7.7 18.2
12:20 1016 30 845 24.95 5.6 42.2 39 -7.3 18.8
12:25 1016 30 845 24.95 5.8 42.4 38 -7.6 18.4
12:30 1016 30 845 24.95 6 42.8 38 -7.4 18.7
12:35 1016 30 845 24.95 6.6 43.9 35 -7.7 18.2
12:40 1016 30 845 24.95 6.5 43.7 36 -7.6 18.2
12:45 1016 30 845 24.95 6.4 43.5 37 -7.2 19
12:50 1016 30 845 24.95 6.8 44.2 36 -7.2 19.1
12:55 1016 30 845 24.95 6.9 44.4 36 -7 19.3
13:00 1016 30 845 24.95 7 44.5 34 -7.9 17.7
13:05 1016 30 845 24.95 7.3 45.1 35 -7.1 19.1
13:10 1016 30 845 24.95 7.2 44.9 37 -6.6 20.1
13:15 1016 30 845 24.95 6.8 44.3 37 -6.9 19.5
13:20 1016 30 845 24.95 6.7 44.1 38 -6.6 20.1
13:25 1016 30 845 24.95 7.5 45.5 33 -7.9 17.7
13:30 1016 30 845 24.95 8 46.3 31 -8 17.6
13:35 1016 30 845 24.95 7.7 45.8 32 -8 17.5
13:40 1016 30 845 24.95 7.8 46 33 -7.5 18.4
13:45 1016 30 845 24.95 7.4 45.3 34 -7.4 18.8
13:50 1016 30 845 24.95 8 46.3 35 -6.5 20.3
13:55 1016 30 845 24.95 8.3 46.9 35 -6.3 20.6
14:00 1016 30 845 24.95 8.3 46.9 35 -6.4 20.5
14:05 1015 29.97 845 24.95 8 46.4 34 -6.9 19.6
14:10 1015 29.97 845 24.95 7.6 45.7 36 -6.6 20.1
14:15 1015 29.97 845 24.95 7.9 46.3 33 -7.2 19
14:20 1015 29.97 845 24.95 8.4 47.1 33 -6.9 19.5
14:25 1015 29.97 845 24.95 8.2 46.8 34 -6.9 19.6
14:30 1015 29.97 845 24.95 8.1 46.5 34 -6.7 19.9
14:35 1015 29.97 845 24.95 8.1 46.5 34 -7 19.4
14:40 1015 29.97 845 24.95 8 46.3 36 -6.1 21
14:45 1015 29.97 845 24.95 7.4 45.4 37 -6.5 20.3
14:50 1015 29.97 845 24.95 6.8 44.2 36 -7.1 19.2
14:55 1015 29.97 844 24.92 7.3 45.1 34 -7.4 18.6
15:00 1015 29.97 844 24.92 7.8 46 33 -7.6 18.4
15:05 1015 29.97 844 24.92 8 46.4 33 -7.4 18.7
15:10 1015 29.97 844 24.92 7.9 46.2 34 -7 19.4
15:15 1015 29.97 844 24.92 7.9 46.2 37 -6 21.2
15:20 1015 29.97 844 24.92 8.1 46.6 35 -6.4 20.4
15:25 1015 29.97 844 24.92 8.4 47.2 35 -6.3 20.6
15:30 1015 29.97 844 24.92 8.3 46.9 35 -6.3 20.7
15:35 1015 29.97 844 24.92 7.9 46.3 37 -6 21.2
15:40 1015 29.97 844 24.92 8 46.5 37 -5.6 21.9
15:45 1015 29.97 844 24.92 7.9 46.2 39 -5.2 22.6
15:50 1015 29.97 844 24.92 7.9 46.1 40 -4.9 23.2
15:55 1015 29.97 844 24.92 7.9 46.1 43 -3.8 25.1
16:00 1015 29.97 844 24.92 7.8 46 44 -3.7 25.3
16:05 1015 29.97 844 24.92 7.8 46 50 -2.1 28.2
16:10 1015 29.97 845 24.95 7.5 45.6 48 -2.6 27.3
16:15 1015 29.97 844 24.92 7.3 45.1 48 -2.9 26.7
16:20 1015 29.97 844 24.92 7.1 44.8 50 -2.5 27.5
16:25 1015 29.97 844 24.92 6.9 44.5 55 -1.4 29.6
16:30 1015 29.97 844 24.92 6.5 43.7 59 -1 30.2
16:35 1015 29.97 844 24.92 6.2 43.2 62 -0.6 30.9
16:40 1015 29.97 844 24.92 6 42.7 63 -0.6 30.9
16:45 1015 29.97 845 24.95 5.8 42.5 63 -0.6 30.8
16:50 1015 29.97 845 24.95 5.7 42.3 63 -0.7 30.7
16:55 1015 29.97 845 24.95 5.6 42.1 65 -0.5 31
17:00 1015 29.97 844 24.92 5.2 41.4 64 -1 30.3
17:05 1015 29.97 844 24.92 5.2 41.3 61 -1.6 29.1
17:10 1015 29.97 844 24.92 5.3 41.5 62 -1.3 29.6
17:15 1015 29.97 844 24.92 5 41 64 -1.2 29.9
17:20 1015 29.97 845 24.95 4.9 40.8 64 -1.4 29.5
17:25 1015 29.97 845 24.95 4.8 40.7 64 -1.4 29.5
17:30 1015 29.97 845 24.95 4.8 40.6 64 -1.4 29.5
17:35 1015 29.97 845 24.95 4.6 40.2 64 -1.6 29.1
17:40 1016 30 845 24.95 4.4 39.9 65 -1.6 29.2
17:45 1016 30 845 24.95 4 39.3 65 -1.9 28.6
17:50 1016 30 845 24.95 4.1 39.3 65 -1.9 28.6
17:55 1016 30 845 24.95 3.9 39 67 -1.6 29.1
18:00 1016 30 845 24.95 3.6 38.5 67 -1.9 28.6
18:05 1016 30 845 24.95 3.5 38.3 67 -2 28.3
18:10 1016 30 845 24.95 3.8 38.8 65 -2.2 28.1
18:15 1016 30 845 24.95 3.8 38.9 66 -1.9 28.6
18:20 1016 30 845 24.95 3.7 38.6 66 -2.1 28.2
18:25 1016 30 845 24.95 3.8 38.8 64 -2.4 27.6
18:30 1016 30 845 24.95 4.2 39.6 62 -2.4 27.6
18:35 1016 30 845 24.95 4.3 39.8 60 -2.6 27.3
18:40 1016 30 845 24.95 4.2 39.5 63 -2.3 27.8
18:45 1016 30 845 24.95 4 39.1 62 -2.7 27.1
18:50 1016 30 845 24.95 3.9 39 63 -2.6 27.3
18:55 1016 30 845 24.95 3.7 38.6 64 -2.6 27.3
19:00 1016 30 845 24.95 3.6 38.6 62 -3.1 26.5
19:05 1016 30 845 24.95 3.7 38.7 63 -2.6 27.4
19:10 1016 30 845 24.95 3.7 38.7 61 -3 26.5
19:15 1016 30 845 24.95 3.9 38.9 60 -3.2 26.2
19:20 1016 30 845 24.95 4.1 39.4 56 -3.8 25.2
19:25 1016 30 845 24.95 4.5 40.1 57 -3.3 26
19:30 1016 30 845 24.95 4.5 40.2 55 -3.8 25.2
19:35 1016 30 845 24.95 4.4 40 59 -2.9 26.8
19:40 1016 30 845 24.95 4.1 39.4 57 -3.6 25.5
19:45 1016 30 845 24.95 4.5 40.1 56 -3.5 25.7
19:50 1016 30 845 24.95 4.4 39.8 56 -3.6 25.6
19:55 1016 30 845 24.95 4.3 39.7 56 -3.7 25.4
20:00 1016 30 845 24.95 4.4 39.9 56 -3.6 25.6
20:05 1016 30 845 24.95 4.3 39.8 56 -3.8 25.2
20:10 1016 30 845 24.95 4.6 40.2 53 -4.2 24.4
20:15 1016 30 845 24.95 4.8 40.7 52 -4.2 24.5
20:20 1016 30 845 24.95 4.8 40.7 52 -4.2 24.4
20:25 1016 30 845 24.95 4.9 40.7 51 -4.3 24.2
20:30 1016 30 845 24.95 4.9 40.8 53 -3.8 25.1
20:35 1016 30 845 24.95 4.8 40.6 52 -4.2 24.5
20:40 1016 30 845 24.95 5 40.9 52 -4 24.8
20:45 1016 30 845 24.95 4.9 40.8 55 -3.4 25.9
20:50 1016 30 845 24.95 4.6 40.3 56 -3.4 25.9
20:55 1016 30 845 24.95 4.6 40.3 55 -3.6 25.6
21:00 1016 30 845 24.95 4.7 40.4 54 -3.8 25.2
21:05 1016 30 845 24.95 4.7 40.4 55 -3.5 25.7
21:10 1016 30 845 24.95 4.5 40.1 56 -3.6 25.5
21:15 1016 30 845 24.95 4.4 39.9 56 -3.7 25.3
21:20 1016 30 845 24.95 4.2 39.6 54 -4.4 24.1
21:25 1016 30 845 24.95 4.7 40.5 51 -4.6 23.8
21:30 1016 30 845 24.95 4.9 40.9 51 -4.4 24.1
21:35 1016 30 845 24.95 4.9 40.8 50 -4.7 23.6
21:40 1016 30 845 24.95 5 41 50 -4.5 23.8
21:45 1016 30 845 24.95 5.2 41.4 49 -4.5 23.9
21:50 1016 30 845 24.95 5.1 41.2 51 -4.3 24.2
21:55 1016 30 845 24.95 4.9 40.8 51 -4.4 24.1
22:00 1016 30 845 24.95 4.8 40.6 52 -4.2 24.5
22:05 1016 30 845 24.95 4.7 40.4 52 -4.2 24.4
22:10 1016 30 845 24.95 4.7 40.5 51 -4.5 23.9
22:15 1016 30 845 24.95 5 40.9 49 -4.8 23.3
22:20 1016 30 845 24.95 5.1 41.2 47 -5.3 22.5
22:25 1016 30 845 24.95 5.2 41.3 48 -5 22.9
22:30 1016 30 845 24.95 5 41 48 -5.1 22.9
22:35 1016 30 845 24.95 4.9 40.8 48 -5.2 22.7
22:40 1016 30 845 24.95 4.9 40.7 50 -4.6 23.7
22:45 1016 30 845 24.95 4.6 40.3 50 -4.8 23.3
22:50 1016 30 845 24.95 4.2 39.6 59 -3.1 26.4
22:55 1016 30 845 24.95 3.7 38.7 57 -4 24.7
23:00 1016 30 845 24.95 4 39.3 54 -4.4 24.1
23:05 1016 30 845 24.95 4.2 39.5 52 -4.7 23.5
23:10 1016 30 845 24.95 4.7 40.4 49 -5.2 22.7
23:15 1016 30 845 24.95 5 40.9 41 -7.1 19.2
23:20 1016 30 845 24.95 5.6 42.2 41 -6.5 20.2
23:25 1016 30 845 24.95 5.7 42.3 40 -6.7 19.9
23:30 1016 30 845 24.95 5.6 42.1 40 -6.9 19.5
23:35 1016 30 845 24.95 5.9 42.7 38 -7.3 18.9
23:40 1016 30 845 24.95 6.3 43.3 34 -8.4 16.8
23:45 1016 30 845 24.95 7 44.6 35 -7.5 18.6
23:50 1016 30 845 24.95 6.3 43.4 40 -6.2 20.8
23:55 1016 30 845 24.95 5.7 42.3 41 -6.6 20.1
24:00 1016 30 845 24.95 5.5 41.8 42 -6.5 20.2